createdAt,value
2023-05-14T00:00:23.735Z,99466.03
2023-05-14T00:02:50.420Z,99460.06
2023-05-14T00:05:16.837Z,99457.22
2023-05-14T00:07:43.196Z,99460.81
2023-05-14T00:10:09.585Z,99457.59
2023-05-14T00:12:35.925Z,99456.69
2023-05-14T00:15:02.312Z,99461.28
2023-05-14T00:17:28.695Z,99460.63
2023-05-14T00:19:55.076Z,99471.38
2023-05-14T00:22:21.397Z,99457.38
2023-05-14T00:24:47.776Z,99462.09
2023-05-14T00:27:14.087Z,99465.84
2023-05-14T00:29:40.414Z,99467.00
2023-05-14T00:32:06.784Z,99466.09
2023-05-14T00:34:33.102Z,99464.38
2023-05-14T00:36:59.500Z,99462.69
2023-05-14T00:39:25.858Z,99464.63
2023-05-14T00:41:52.190Z,99462.03
2023-05-14T00:44:18.502Z,99461.75
2023-05-14T00:46:44.849Z,99468.31
2023-05-14T00:49:11.206Z,99470.59
2023-05-14T00:51:37.517Z,99472.19
2023-05-14T00:54:03.884Z,99468.16
2023-05-14T00:56:30.206Z,99470.78
2023-05-14T00:58:56.583Z,99471.28
2023-05-14T01:01:23.038Z,99473.34
2023-05-14T01:03:49.542Z,99468.16
2023-05-14T01:06:15.935Z,99466.69
2023-05-14T01:08:42.339Z,99462.13
2023-05-14T01:11:08.636Z,99463.16
2023-05-14T01:13:34.970Z,99467.28
2023-05-14T01:16:01.352Z,99464.19
2023-05-14T01:18:27.676Z,99459.94
2023-05-14T01:20:54.051Z,99469.56
2023-05-14T01:23:20.432Z,99462.78
2023-05-14T01:25:46.745Z,99457.31
2023-05-14T01:28:13.137Z,99463.16
2023-05-14T01:30:39.596Z,99459.63
2023-05-14T01:33:06.015Z,99460.31
2023-05-14T01:35:32.340Z,99459.72
2023-05-14T01:37:58.744Z,99456.75
2023-05-14T01:40:25.973Z,99452.41
2023-05-14T01:42:52.491Z,99454.00
2023-05-14T01:45:18.875Z,99453.78
2023-05-14T01:47:45.289Z,99448.63
2023-05-14T01:50:11.685Z,99443.16
2023-05-14T01:52:38.464Z,99441.09
2023-05-14T01:55:04.773Z,99438.09
2023-05-14T01:57:31.087Z,99435.94
2023-05-14T01:59:57.462Z,99431.00
2023-05-14T02:02:23.817Z,99424.72
2023-05-14T02:04:50.147Z,99420.13
2023-05-14T02:07:16.530Z,99423.22
2023-05-14T02:09:42.858Z,99426.91
2023-05-14T02:12:09.222Z,99421.06
2023-05-14T02:14:35.583Z,99415.78
2023-05-14T02:17:01.922Z,99416.94
2023-05-14T02:19:28.264Z,99418.41
2023-05-14T02:21:54.632Z,99411.22
2023-05-14T02:24:20.944Z,99410.06
2023-05-14T02:26:47.298Z,99404.38
2023-05-14T02:29:13.666Z,99399.09
2023-05-14T02:31:40.174Z,99396.44
2023-05-14T02:34:06.505Z,99396.75
2023-05-14T02:36:33.274Z,99390.03
2023-05-14T02:38:59.588Z,99394.69
2023-05-14T02:41:25.899Z,99392.63
2023-05-14T02:43:52.248Z,99385.56
2023-05-14T02:46:18.624Z,99393.31
2023-05-14T02:48:44.987Z,99386.72
2023-05-14T02:51:11.354Z,99393.78
2023-05-14T02:53:37.677Z,99390.94
2023-05-14T02:56:04.019Z,99384.66
2023-05-14T02:58:30.380Z,99390.81
2023-05-14T03:00:56.761Z,99386.56
2023-05-14T03:03:23.515Z,99383.03
2023-05-14T03:05:50.443Z,99374.78
2023-05-14T03:08:16.764Z,99376.84
2023-05-14T03:10:43.082Z,99376.41
2023-05-14T03:13:09.447Z,99373.66
2023-05-14T03:15:35.779Z,99369.66
2023-05-14T03:18:02.267Z,99370.09
2023-05-14T03:20:28.719Z,99366.56
2023-05-14T03:22:55.042Z,99367.34
2023-05-14T03:25:21.364Z,99365.88
2023-05-14T03:27:47.708Z,99365.41
2023-05-14T03:30:14.061Z,99367.72
2023-05-14T03:32:40.421Z,99363.38
2023-05-14T03:35:06.833Z,99363.94
2023-05-14T03:37:33.157Z,99362.81
2023-05-14T03:39:59.467Z,99361.31
2023-05-14T03:42:25.836Z,99366.13
2023-05-14T03:44:52.156Z,99369.09
2023-05-14T03:47:18.503Z,99364.88
2023-05-14T03:49:45.179Z,99365.19
2023-05-14T03:52:13.071Z,99366.03
2023-05-14T03:54:39.388Z,99362.00
2023-05-14T03:57:05.763Z,99361.19
2023-05-14T03:59:32.082Z,99371.38
2023-05-14T04:01:58.404Z,99379.59
2023-05-14T04:04:25.824Z,99377.31
2023-05-14T04:06:52.185Z,99385.44
2023-05-14T04:09:18.569Z,99384.38
2023-05-14T04:11:44.958Z,99386.66
2023-05-14T04:14:11.323Z,99391.72
2023-05-14T04:16:37.688Z,99390.22
2023-05-14T04:19:04.247Z,99383.59
2023-05-14T04:21:30.587Z,99382.13
2023-05-14T04:23:56.951Z,99386.00
2023-05-14T04:26:23.372Z,99384.75
2023-05-14T04:28:49.708Z,99384.59
2023-05-14T04:31:16.076Z,99386.09
2023-05-14T04:33:42.464Z,99380.84
2023-05-14T04:36:08.822Z,99387.47
2023-05-14T04:38:35.162Z,99382.66
2023-05-14T04:41:01.535Z,99390.06
2023-05-14T04:43:27.856Z,99387.78
2023-05-14T04:45:54.194Z,99387.22
2023-05-14T04:48:20.574Z,99393.53
2023-05-14T04:50:46.895Z,99391.38
2023-05-14T04:53:13.213Z,99389.28
2023-05-14T04:55:39.661Z,99390.84
2023-05-14T04:58:05.998Z,99383.56
2023-05-14T05:00:32.330Z,99380.81
2023-05-14T05:02:58.841Z,99388.69
2023-05-14T05:05:25.300Z,99385.25
2023-05-14T05:07:51.626Z,99386.41
2023-05-14T05:10:17.973Z,99389.63
2023-05-14T05:12:44.313Z,99392.38
2023-05-14T05:15:10.631Z,99390.91
2023-05-14T05:17:37.071Z,99387.78
2023-05-14T05:20:03.431Z,99396.63
2023-05-14T05:22:29.762Z,99388.50
2023-05-14T05:24:56.268Z,99386.69
2023-05-14T05:27:22.576Z,99376.63
2023-05-14T05:29:48.930Z,99372.06
2023-05-14T05:32:15.307Z,99369.41
2023-05-14T05:34:41.619Z,99368.88
2023-05-14T05:37:07.998Z,99371.72
2023-05-14T05:39:34.362Z,99362.94
2023-05-14T05:42:00.664Z,99356.88
2023-05-14T05:44:27.111Z,99354.69
2023-05-14T05:46:53.592Z,99354.16
2023-05-14T05:49:20.001Z,99348.78
2023-05-14T05:51:46.328Z,99337.88
2023-05-14T05:54:12.689Z,99337.56
2023-05-14T05:56:38.993Z,99337.75
2023-05-14T05:59:05.333Z,99342.56
2023-05-14T06:01:31.688Z,99342.88
2023-05-14T06:03:58.032Z,99336.69
2023-05-14T06:06:24.354Z,99346.19
2023-05-14T06:08:50.721Z,99345.22
2023-05-14T06:11:17.112Z,99347.03
2023-05-14T06:13:43.457Z,99357.00
2023-05-14T06:16:09.878Z,99362.59
2023-05-14T06:18:36.290Z,99357.22
2023-05-14T06:21:02.611Z,99354.25
2023-05-14T06:23:28.978Z,99355.94
2023-05-14T06:25:55.307Z,99352.53
2023-05-14T06:28:21.623Z,99353.94
2023-05-14T06:30:47.954Z,99354.66
2023-05-14T06:33:14.313Z,99354.59
2023-05-14T06:35:40.613Z,99359.38
2023-05-14T06:38:06.973Z,99361.53
2023-05-14T06:40:33.349Z,99361.38
2023-05-14T06:42:59.659Z,99361.91
2023-05-14T06:45:26.024Z,99362.78
2023-05-14T06:47:52.474Z,99365.28
2023-05-14T06:50:18.837Z,99365.84
2023-05-14T06:52:45.191Z,99367.00
2023-05-14T06:55:11.527Z,99359.34
2023-05-14T06:57:40.483Z,99364.91
2023-05-14T07:00:07.088Z,99361.06
2023-05-14T07:02:33.448Z,99356.56
2023-05-14T07:04:59.820Z,99360.91
2023-05-14T07:07:26.179Z,99360.97
2023-05-14T07:09:52.501Z,99357.72
2023-05-14T07:12:18.834Z,99361.06
2023-05-14T07:14:45.192Z,99347.03
2023-05-14T07:17:11.572Z,99330.16
2023-05-14T07:19:37.900Z,99335.72
2023-05-14T07:22:04.350Z,99328.28
2023-05-14T07:24:30.665Z,99323.44
2023-05-14T07:26:56.977Z,99325.47
2023-05-14T07:29:23.371Z,99322.78
2023-05-14T07:31:49.780Z,99313.47
2023-05-14T07:34:16.135Z,99292.88
2023-05-14T07:36:42.480Z,99301.25
2023-05-14T07:39:08.797Z,99292.72
2023-05-14T07:41:35.119Z,99301.88
2023-05-14T07:44:01.478Z,99303.59
2023-05-14T07:46:28.029Z,99292.00
2023-05-14T07:48:54.366Z,99294.88
2023-05-14T07:51:20.794Z,99288.38
2023-05-14T07:53:47.098Z,99279.38
2023-05-14T07:56:13.424Z,99272.03
2023-05-14T07:58:39.911Z,99265.50
2023-05-14T08:01:06.251Z,99263.63
2023-05-14T08:03:32.649Z,99267.31
2023-05-14T08:05:59.111Z,99268.59
2023-05-14T08:08:25.443Z,99261.63
2023-05-14T08:10:51.807Z,99262.13
2023-05-14T08:13:18.224Z,99265.06
2023-05-14T08:15:44.540Z,99257.25
2023-05-14T08:18:10.916Z,99258.13
2023-05-14T08:20:37.332Z,99254.38
2023-05-14T08:23:03.642Z,99245.00
2023-05-14T08:25:29.957Z,99242.72
2023-05-14T08:27:56.339Z,99248.69
2023-05-14T08:30:23.242Z,99247.78
2023-05-14T08:32:49.869Z,99251.00
2023-05-14T08:35:16.249Z,99249.56
2023-05-14T08:37:42.558Z,99241.88
2023-05-14T08:40:08.891Z,99246.63
2023-05-14T08:42:35.265Z,99245.53
2023-05-14T08:45:01.586Z,99244.00
2023-05-14T08:47:27.943Z,99243.22
2023-05-14T08:49:54.337Z,99237.66
2023-05-14T08:52:20.651Z,99245.50
2023-05-14T08:54:46.982Z,99240.84
2023-05-14T08:57:13.353Z,99248.38
2023-05-14T08:59:39.687Z,99243.63
2023-05-14T09:02:06.008Z,99239.34
2023-05-14T09:04:32.367Z,99244.91
2023-05-14T09:06:58.682Z,99245.78
2023-05-14T09:09:24.996Z,99241.06
2023-05-14T09:11:51.445Z,99244.47
2023-05-14T09:14:17.769Z,99242.88
2023-05-14T09:16:44.252Z,99244.59
2023-05-14T09:19:10.791Z,99247.38
2023-05-14T09:21:37.155Z,99242.91
2023-05-14T09:24:03.476Z,99240.34
2023-05-14T09:26:29.830Z,99242.28
2023-05-14T09:28:56.134Z,99232.47
2023-05-14T09:31:22.533Z,99233.63
2023-05-14T09:33:48.910Z,99232.09
2023-05-14T09:36:15.228Z,99230.69
2023-05-14T09:38:41.537Z,99219.50
2023-05-14T09:41:07.923Z,99218.38
2023-05-14T09:43:34.242Z,99215.72
2023-05-14T09:46:00.586Z,99190.50
2023-05-14T09:48:27.082Z,99220.00
2023-05-14T09:50:53.495Z,99206.97
2023-05-14T09:53:19.818Z,99215.59
2023-05-14T09:55:46.192Z,99203.72
2023-05-14T09:58:12.518Z,99200.22
2023-05-14T10:00:38.862Z,99198.63
2023-05-14T10:03:05.254Z,99183.63
2023-05-14T10:05:31.628Z,99186.47
2023-05-14T10:07:57.980Z,99178.22
2023-05-14T10:10:24.594Z,99171.41
2023-05-14T10:12:51.135Z,99177.38
2023-05-14T10:15:17.450Z,99170.31
2023-05-14T10:17:43.833Z,99169.47
2023-05-14T10:20:10.200Z,99160.13
2023-05-14T10:22:36.526Z,99164.13
2023-05-14T10:25:02.918Z,99168.50
2023-05-14T10:27:29.282Z,99169.31
2023-05-14T10:29:55.603Z,99177.44
2023-05-14T10:32:21.977Z,99176.09
2023-05-14T10:34:48.309Z,99166.63
2023-05-14T10:37:14.634Z,99161.47
2023-05-14T10:39:41.008Z,99167.06
2023-05-14T10:42:07.336Z,99165.19
2023-05-14T10:44:33.660Z,99157.66
2023-05-14T10:47:00.045Z,99160.25
2023-05-14T10:49:42.468Z,99151.13
2023-05-14T10:52:09.593Z,99150.34
2023-05-14T10:54:35.899Z,99158.66
2023-05-14T10:57:02.233Z,99163.00
2023-05-14T10:59:28.719Z,99163.41
2023-05-14T11:01:55.157Z,99151.97
2023-05-14T11:04:21.571Z,99160.25
2023-05-14T11:06:47.961Z,99151.59
2023-05-14T11:09:14.318Z,99147.84
2023-05-14T11:11:40.624Z,99145.78
2023-05-14T11:14:08.502Z,99147.28
2023-05-14T11:16:36.415Z,99146.94
2023-05-14T11:19:02.869Z,99152.50
2023-05-14T11:21:29.315Z,99146.94
2023-05-14T11:23:55.700Z,99141.22
2023-05-14T11:26:22.066Z,99132.41
2023-05-14T11:28:48.465Z,99135.94
2023-05-14T11:31:14.815Z,99132.56
2023-05-14T11:33:41.178Z,99134.47
2023-05-14T11:36:07.533Z,99123.47
2023-05-14T11:38:33.870Z,99120.31
2023-05-14T11:41:00.191Z,99121.50
2023-05-14T11:43:26.602Z,99121.50
2023-05-14T11:45:53.034Z,99117.13
2023-05-14T11:48:19.441Z,99122.31
2023-05-14T11:50:45.797Z,99114.78
2023-05-14T11:53:12.117Z,99110.44
2023-05-14T11:55:38.430Z,99102.00
2023-05-14T11:58:04.795Z,99099.63
2023-05-14T12:00:31.095Z,99102.75
2023-05-14T12:02:57.467Z,99100.81
2023-05-14T12:05:23.918Z,99096.06
2023-05-14T12:07:50.244Z,99107.50
2023-05-14T12:10:16.567Z,99108.44
2023-05-14T12:12:42.953Z,99105.69
2023-05-14T12:15:09.276Z,99102.53
2023-05-14T12:17:35.664Z,99099.34
2023-05-14T12:20:02.068Z,99097.34
2023-05-14T12:22:28.388Z,99094.19
2023-05-14T12:24:54.727Z,99090.25
2023-05-14T12:27:21.104Z,99077.16
2023-05-14T12:29:47.429Z,99073.97
2023-05-14T12:32:13.734Z,99083.88
2023-05-14T12:34:40.114Z,99074.00
2023-05-14T12:37:06.464Z,99077.16
2023-05-14T12:39:32.800Z,99079.53
2023-05-14T12:41:59.168Z,99070.03
2023-05-14T12:44:25.497Z,99081.50
2023-05-14T12:46:51.868Z,99079.53
2023-05-14T12:49:18.281Z,99069.22
2023-05-14T12:51:44.588Z,99066.09
2023-05-14T12:54:10.926Z,99061.72
2023-05-14T12:56:37.285Z,99057.34
2023-05-14T12:59:03.639Z,99059.38
2023-05-14T13:01:30.050Z,99047.88
2023-05-14T13:03:56.475Z,99046.72
2023-05-14T13:06:22.825Z,99033.63
2023-05-14T13:08:49.137Z,99031.28
2023-05-14T13:11:15.510Z,99030.47
2023-05-14T13:13:41.855Z,99028.50
2023-05-14T13:16:08.176Z,99024.53
2023-05-14T13:18:34.574Z,99029.69
2023-05-14T13:21:01.318Z,99032.06
2023-05-14T13:23:27.632Z,99018.97
2023-05-14T13:25:54.002Z,99006.28
2023-05-14T13:28:20.319Z,99001.13
2023-05-14T13:30:46.671Z,98996.78
2023-05-14T13:33:13.097Z,98993.97
2023-05-14T13:35:39.492Z,99000.34
2023-05-14T13:38:05.814Z,99002.69
2023-05-14T13:40:32.189Z,99001.13
2023-05-14T13:42:58.499Z,98994.00
2023-05-14T13:45:25.069Z,98997.22
2023-05-14T13:47:51.881Z,98990.88
2023-05-14T13:50:18.239Z,98983.34
2023-05-14T13:52:44.547Z,98979.38
2023-05-14T13:55:10.927Z,98971.06
2023-05-14T13:57:37.261Z,98970.28
2023-05-14T14:00:03.585Z,98975.03
2023-05-14T14:02:31.861Z,98970.25
2023-05-14T14:04:59.260Z,98965.88
2023-05-14T14:07:25.597Z,98967.09
2023-05-14T14:09:51.984Z,98965.53
2023-05-14T14:12:18.364Z,98957.56
2023-05-14T14:14:44.725Z,98944.50
2023-05-14T14:17:11.100Z,98942.91
2023-05-14T14:19:37.428Z,98938.59
2023-05-14T14:22:03.747Z,98940.94
2023-05-14T14:24:30.109Z,98924.31
2023-05-14T14:26:56.425Z,98925.53
2023-05-14T14:29:22.757Z,98914.81
2023-05-14T14:31:49.133Z,98906.53
2023-05-14T14:34:15.471Z,98904.13
2023-05-14T14:36:58.166Z,98897.38
2023-05-14T14:39:24.532Z,98896.19
2023-05-14T14:41:50.852Z,98898.97
2023-05-14T14:44:17.253Z,98905.72
2023-05-14T14:46:43.605Z,98903.34
2023-05-14T14:49:09.925Z,98913.25
2023-05-14T14:51:36.282Z,98905.69
2023-05-14T14:54:02.603Z,98914.34
2023-05-14T14:56:28.940Z,98913.56
2023-05-14T14:58:55.302Z,98910.38
2023-05-14T15:01:21.725Z,98912.78
2023-05-14T15:03:48.159Z,98896.53
2023-05-14T15:06:14.586Z,98892.19
2023-05-14T15:08:40.920Z,98895.75
2023-05-14T15:11:07.312Z,98891.41
2023-05-14T15:13:33.694Z,98891.00
2023-05-14T15:16:00.001Z,98872.03
2023-05-14T15:18:26.356Z,98876.75
2023-05-14T15:20:52.792Z,98875.97
2023-05-14T15:23:19.103Z,98873.59
2023-05-14T15:25:45.431Z,98872.41
2023-05-14T15:28:11.796Z,98872.41
2023-05-14T15:30:38.196Z,98867.25
2023-05-14T15:33:04.646Z,98861.31
2023-05-14T15:35:31.092Z,98862.50
2023-05-14T15:37:57.474Z,98852.63
2023-05-14T15:40:24.018Z,98851.44
2023-05-14T15:42:50.565Z,98858.91
2023-05-14T15:45:16.901Z,98856.56
2023-05-14T15:47:43.254Z,98858.91
2023-05-14T15:50:09.641Z,98858.53
2023-05-14T15:52:35.953Z,98854.56
2023-05-14T15:55:02.281Z,98856.13
2023-05-14T15:57:28.641Z,98856.13
2023-05-14T15:59:54.972Z,98852.97
2023-05-14T16:02:21.287Z,98863.66
2023-05-14T16:04:47.686Z,98861.25
2023-05-14T16:07:13.999Z,98865.59
2023-05-14T16:09:40.305Z,98858.88
2023-05-14T16:12:06.696Z,98852.97
2023-05-14T16:14:33.022Z,98858.94
2023-05-14T16:16:59.348Z,98854.59
2023-05-14T16:19:26.039Z,98857.78
2023-05-14T16:21:52.359Z,98857.38
2023-05-14T16:24:18.665Z,98842.75
2023-05-14T16:26:45.014Z,98855.38
2023-05-14T16:29:11.349Z,98856.19
2023-05-14T16:31:37.729Z,98858.94
2023-05-14T16:34:04.095Z,98855.38
2023-05-14T16:36:30.403Z,98853.41
2023-05-14T16:39:07.166Z,98852.19
2023-05-14T16:41:34.358Z,98848.66
2023-05-14T16:44:00.677Z,98855.34
2023-05-14T16:46:27.043Z,98846.59
2023-05-14T16:48:53.491Z,98856.00
2023-05-14T16:51:19.878Z,98859.13
2023-05-14T16:53:46.185Z,98858.34
2023-05-14T16:56:12.564Z,98860.69
2023-05-14T16:58:38.890Z,98863.81
2023-05-14T17:01:07.343Z,98869.34
2023-05-14T17:03:35.730Z,98863.78
2023-05-14T17:06:02.040Z,98864.94
2023-05-14T17:08:28.629Z,98866.16
2023-05-14T17:10:54.971Z,98869.31
2023-05-14T17:13:21.296Z,98872.97
2023-05-14T17:15:47.637Z,98869.41
2023-05-14T17:18:14.065Z,98861.13
2023-05-14T17:20:40.485Z,98851.22
2023-05-14T17:23:06.768Z,98850.41
2023-05-14T17:25:33.136Z,98851.22
2023-05-14T17:27:59.450Z,98852.38
2023-05-14T17:30:25.798Z,98851.59
2023-05-14T17:32:52.280Z,98849.59
2023-05-14T17:35:18.667Z,98844.88
2023-05-14T17:37:44.958Z,98853.13
2023-05-14T17:40:11.327Z,98855.03
2023-05-14T17:42:37.631Z,98854.25
2023-05-14T17:45:03.948Z,98855.03
2023-05-14T17:47:30.428Z,98849.47
2023-05-14T17:49:56.818Z,98852.16
2023-05-14T17:52:23.154Z,98846.97
2023-05-14T17:54:49.548Z,98853.31
2023-05-14T17:57:15.871Z,98852.06
2023-05-14T17:59:42.211Z,98844.56
2023-05-14T18:02:08.559Z,98847.31
2023-05-14T18:04:34.877Z,98844.53
2023-05-14T18:07:01.194Z,98838.22
2023-05-14T18:09:27.561Z,98841.38
2023-05-14T18:11:55.476Z,98835.47
2023-05-14T18:14:23.168Z,98837.03
2023-05-14T18:16:49.650Z,98825.97
2023-05-14T18:19:16.024Z,98829.06
2023-05-14T18:21:42.341Z,98830.66
2023-05-14T18:24:08.758Z,98834.19
2023-05-14T18:26:35.060Z,98832.97
2023-05-14T18:29:01.381Z,98828.97
2023-05-14T18:31:28.076Z,98842.34
2023-05-14T18:33:54.597Z,98845.09
2023-05-14T18:36:20.941Z,98842.31
2023-05-14T18:38:47.319Z,98847.41
2023-05-14T18:41:13.634Z,98850.16
2023-05-14T18:43:39.951Z,98852.09
2023-05-14T18:46:06.316Z,98845.34
2023-05-14T18:48:32.632Z,98850.44
2023-05-14T18:50:58.943Z,98855.16
2023-05-14T18:53:25.320Z,98854.41
2023-05-14T18:55:51.637Z,98859.06
2023-05-14T18:58:17.955Z,98858.59
2023-05-14T19:00:44.304Z,98865.13
2023-05-14T19:03:10.784Z,98860.53
2023-05-14T19:05:37.195Z,98852.97
2023-05-14T19:08:03.549Z,98853.34
2023-05-14T19:10:29.865Z,98856.41
2023-05-14T19:12:56.202Z,98849.28
2023-05-14T19:15:22.805Z,98853.97
2023-05-14T19:17:49.547Z,98849.13
2023-05-14T19:20:15.891Z,98851.50
2023-05-14T19:22:42.262Z,98847.19
2023-05-14T19:25:08.586Z,98848.69
2023-05-14T19:27:34.894Z,98842.75
2023-05-14T19:30:01.273Z,98850.22
2023-05-14T19:32:27.633Z,98841.41
2023-05-14T19:34:53.997Z,98842.63
2023-05-14T19:37:20.360Z,98836.31
2023-05-14T19:39:46.662Z,98833.13
2023-05-14T19:42:12.976Z,98828.16
2023-05-14T19:44:39.396Z,98822.44
2023-05-14T19:47:05.772Z,98825.22
2023-05-14T19:49:32.130Z,98820.91
2023-05-14T19:51:58.552Z,98811.81
2023-05-14T19:54:24.890Z,98809.78
2023-05-14T19:56:51.189Z,98797.91
2023-05-14T19:59:17.597Z,98797.50
2023-05-14T20:01:44.051Z,98804.16
2023-05-14T20:04:10.414Z,98790.69
2023-05-14T20:06:36.785Z,98779.69
2023-05-14T20:09:03.105Z,98775.38
2023-05-14T20:11:29.436Z,98777.69
2023-05-14T20:13:55.799Z,98765.47
2023-05-14T20:16:22.146Z,98759.56
2023-05-14T20:18:48.553Z,98746.09
2023-05-14T20:21:14.944Z,98745.69
2023-05-14T20:23:41.325Z,98735.00
2023-05-14T20:26:07.647Z,98725.19
2023-05-14T20:28:34.063Z,98720.41
2023-05-14T20:31:00.513Z,98713.25
2023-05-14T20:33:26.886Z,98698.31
2023-05-14T20:35:53.264Z,98686.47
2023-05-14T20:38:19.602Z,98670.28
2023-05-14T20:40:45.944Z,98645.41
2023-05-14T20:43:12.321Z,98643.81
2023-05-14T20:45:38.637Z,98635.47
2023-05-14T20:48:04.991Z,98644.75
2023-05-14T20:50:31.381Z,98662.47
2023-05-14T20:52:57.724Z,98648.75
2023-05-14T20:55:24.324Z,98645.03
2023-05-14T20:57:50.817Z,98645.00
2023-05-14T21:00:17.135Z,98636.41
2023-05-14T21:02:43.615Z,98639.97
2023-05-14T21:05:10.155Z,98638.75
2023-05-14T21:07:36.482Z,98633.72
2023-05-14T21:10:02.829Z,98625.63
2023-05-14T21:12:29.199Z,98629.53
2023-05-14T21:14:55.531Z,98626.41
2023-05-14T21:17:21.896Z,98625.88
2023-05-14T21:19:48.306Z,98631.44
2023-05-14T21:22:14.631Z,98626.03
2023-05-14T21:24:41.018Z,98617.31
2023-05-14T21:27:07.389Z,98605.19
2023-05-14T21:29:33.713Z,98594.63
2023-05-14T21:32:00.153Z,98612.63
2023-05-14T21:34:26.638Z,98604.00
2023-05-14T21:36:52.990Z,98598.44
2023-05-14T21:39:19.334Z,98607.84
2023-05-14T21:41:45.702Z,98600.09
2023-05-14T21:44:12.015Z,98604.22
2023-05-14T21:46:38.328Z,98595.16
2023-05-14T21:49:04.962Z,98596.84
2023-05-14T21:51:31.359Z,98599.72
2023-05-14T21:53:57.656Z,98594.00
2023-05-14T21:56:24.031Z,98585.13
2023-05-14T21:58:50.344Z,98577.50
2023-05-14T22:01:16.688Z,98584.53
2023-05-14T22:03:43.087Z,98566.47
2023-05-14T22:06:09.477Z,98571.59
2023-05-14T22:08:35.815Z,98571.13
2023-05-14T22:11:02.189Z,98576.16
2023-05-14T22:13:28.516Z,98585.53
2023-05-14T22:16:01.490Z,98578.81
2023-05-14T22:18:38.333Z,98578.03
2023-05-14T22:21:04.687Z,98573.03
2023-05-14T22:23:31.015Z,98559.28
2023-05-14T22:25:57.397Z,98558.13
2023-05-14T22:28:23.735Z,98555.06
2023-05-14T22:30:50.072Z,98545.59
2023-05-14T22:33:16.439Z,98542.03
2023-05-14T22:35:42.751Z,98531.44
2023-05-14T22:38:09.063Z,98531.03
2023-05-14T22:40:35.454Z,98527.06
2023-05-14T22:43:01.778Z,98530.56
2023-05-14T22:45:28.100Z,98527.00
2023-05-14T22:47:54.521Z,98526.13
2023-05-14T22:50:20.876Z,98518.28
2023-05-14T22:52:47.187Z,98522.22
2023-05-14T22:55:13.557Z,98507.69
2023-05-14T22:57:39.859Z,98507.63
2023-05-14T23:00:06.158Z,98514.69
2023-05-14T23:02:32.540Z,98513.09
2023-05-14T23:04:58.862Z,98512.19
2023-05-14T23:07:25.215Z,98498.72
2023-05-14T23:09:51.556Z,98493.19
2023-05-14T23:12:17.860Z,98496.31
2023-05-14T23:14:44.214Z,98488.34
2023-05-14T23:17:10.567Z,98481.34
2023-05-14T23:19:36.925Z,98473.13
2023-05-14T23:22:03.279Z,98464.44
2023-05-14T23:24:29.640Z,98452.97
2023-05-14T23:26:55.954Z,98450.22
2023-05-14T23:29:22.275Z,98443.16
2023-05-14T23:31:48.711Z,98434.13
2023-05-14T23:34:15.076Z,98438.41
2023-05-14T23:36:41.386Z,98430.53
2023-05-14T23:39:07.745Z,98423.28
2023-05-14T23:41:34.065Z,98418.63
2023-05-14T23:44:00.388Z,98414.38
2023-05-14T23:46:26.797Z,98409.97
2023-05-14T23:48:53.227Z,98414.66
2023-05-14T23:51:19.558Z,98415.06
2023-05-14T23:53:45.918Z,98416.81
2023-05-14T23:56:12.241Z,98414.25
2023-05-14T23:58:38.552Z,98404.44
